sensor_id;sensor_type;location;lat;lon;timestamp;temperature;humidity
40660;DHT22;26753;45.544;9.232;2022-11-13T00:02:28;13.20;99.90
40660;DHT22;26753;45.544;9.232;2022-11-13T00:04:54;14.20;99.90
40660;DHT22;26753;45.544;9.232;2022-11-13T00:07:19;13.20;99.90
40660;DHT22;26753;45.544;9.232;2022-11-13T00:09:45;13.20;99.90
40660;DHT22;26753;45.544;9.232;2022-11-13T00:12:11;13.70;99.90
40660;DHT22;26753;45.544;9.232;2022-11-13T00:14:37;13.20;99.90
40660;DHT22;26753;45.544;9.232;2022-11-13T00:17:02;11.30;99.90
40660;DHT22;26753;45.544;9.232;2022-11-13T00:19:28;13.20;99.90
40660;DHT22;26753;45.544;9.232;2022-11-13T00:21:54;13.20;99.90
40660;DHT22;26753;45.544;9.232;2022-11-13T00:24:21;13.10;99.90
40660;DHT22;26753;45.544;9.232;2022-11-13T00:26:46;13.30;99.90
40660;DHT22;26753;45.544;9.232;2022-11-13T00:29:15;13.80;99.90
40660;DHT22;26753;45.544;9.232;2022-11-13T00:31:41;13.00;99.90
40660;DHT22;26753;45.544;9.232;2022-11-13T00:34:08;13.50;99.90
40660;DHT22;26753;45.544;9.232;2022-11-13T00:36:34;13.20;99.90
40660;DHT22;26753;45.544;9.232;2022-11-13T00:39:00;13.10;99.90
40660;DHT22;26753;45.544;9.232;2022-11-13T00:41:25;13.20;99.90
40660;DHT22;26753;45.544;9.232;2022-11-13T00:43:51;13.20;99.90
40660;DHT22;26753;45.544;9.232;2022-11-13T00:46:17;12.90;99.90
40660;DHT22;26753;45.544;9.232;2022-11-13T00:48:43;13.20;99.90
40660;DHT22;26753;45.544;9.232;2022-11-13T00:51:11;13.40;99.90
40660;DHT22;26753;45.544;9.232;2022-11-13T00:53:37;12.90;99.90
40660;DHT22;26753;45.544;9.232;2022-11-13T00:56:03;13.20;99.90
40660;DHT22;26753;45.544;9.232;2022-11-13T00:58:29;13.20;99.90
40660;DHT22;26753;45.544;9.232;2022-11-13T01:00:54;13.30;99.90
40660;DHT22;26753;45.544;9.232;2022-11-13T01:03:20;13.10;99.90
40660;DHT22;26753;45.544;9.232;2022-11-13T01:05:48;13.20;99.90
40660;DHT22;26753;45.544;9.232;2022-11-13T01:08:14;13.40;99.90
40660;DHT22;26753;45.544;9.232;2022-11-13T01:10:43;13.40;99.90
40660;DHT22;26753;45.544;9.232;2022-11-13T01:13:09;13.90;99.90
40660;DHT22;26753;45.544;9.232;2022-11-13T01:15:41;12.70;99.90
40660;DHT22;26753;45.544;9.232;2022-11-13T01:18:07;12.50;99.90
40660;DHT22;26753;45.544;9.232;2022-11-13T01:20:34;9.10;99.90
40660;DHT22;26753;45.544;9.232;2022-11-13T01:23:00;12.80;99.90
40660;DHT22;26753;45.544;9.232;2022-11-13T01:25:27;13.40;99.90
40660;DHT22;26753;45.544;9.232;2022-11-13T01:27:52;13.40;99.90
40660;DHT22;26753;45.544;9.232;2022-11-13T01:30:18;12.90;99.90
40660;DHT22;26753;45.544;9.232;2022-11-13T01:32:44;13.90;99.90
40660;DHT22;26753;45.544;9.232;2022-11-13T01:35:10;12.80;99.90
40660;DHT22;26753;45.544;9.232;2022-11-13T01:37:36;11.90;99.90
40660;DHT22;26753;45.544;9.232;2022-11-13T01:40:02;14.00;99.90
40660;DHT22;26753;45.544;9.232;2022-11-13T01:42:32;12.90;99.90
40660;DHT22;26753;45.544;9.232;2022-11-13T01:44:59;13.00;99.90
40660;DHT22;26753;45.544;9.232;2022-11-13T01:47:27;12.90;99.90
40660;DHT22;26753;45.544;9.232;2022-11-13T01:49:59;12.90;99.90
40660;DHT22;26753;45.544;9.232;2022-11-13T01:52:26;13.00;99.90
40660;DHT22;26753;45.544;9.232;2022-11-13T01:54:54;13.00;99.90
40660;DHT22;26753;45.544;9.232;2022-11-13T01:57:20;14.00;99.90
40660;DHT22;26753;45.544;9.232;2022-11-13T01:59:54;12.60;99.90
40660;DHT22;26753;45.544;9.232;2022-11-13T02:02:21;12.80;99.90
40660;DHT22;26753;45.544;9.232;2022-11-13T02:04:47;12.80;99.90
40660;DHT22;26753;45.544;9.232;2022-11-13T02:07:15;12.40;99.90
40660;DHT22;26753;45.544;9.232;2022-11-13T02:09:47;12.60;99.90
40660;DHT22;26753;45.544;9.232;2022-11-13T02:12:15;13.10;99.90
40660;DHT22;26753;45.544;9.232;2022-11-13T02:14:50;12.40;99.90
40660;DHT22;26753;45.544;9.232;2022-11-13T02:18:01;13.60;99.90
40660;DHT22;26753;45.544;9.232;2022-11-13T02:20:08;12.60;99.90
40660;DHT22;26753;45.544;9.232;2022-11-13T02:25:19;12.50;99.90
40660;DHT22;26753;45.544;9.232;2022-11-13T02:27:52;12.40;99.90
40660;DHT22;26753;45.544;9.232;2022-11-13T02:30:27;13.10;99.90
40660;DHT22;26753;45.544;9.232;2022-11-13T02:32:54;13.90;99.90
40660;DHT22;26753;45.544;9.232;2022-11-13T02:35:25;11.50;99.90
40660;DHT22;26753;45.544;9.232;2022-11-13T02:37:53;11.80;99.90
40660;DHT22;26753;45.544;9.232;2022-11-13T02:45:11;12.10;99.90
40660;DHT22;26753;45.544;9.232;2022-11-13T02:47:37;13.00;99.90
40660;DHT22;26753;45.544;9.232;2022-11-13T02:50:07;12.70;99.90
40660;DHT22;26753;45.544;9.232;2022-11-13T02:52:42;11.50;99.90
40660;DHT22;26753;45.544;9.232;2022-11-13T02:55:08;12.60;99.90
40660;DHT22;26753;45.544;9.232;2022-11-13T03:02:35;11.00;99.90
40660;DHT22;26753;45.544;9.232;2022-11-13T03:11:05;12.70;99.90
40660;DHT22;26753;45.544;9.232;2022-11-13T03:16:56;12.50;99.90
40660;DHT22;26753;45.544;9.232;2022-11-13T03:24:31;11.80;99.90
40660;DHT22;26753;45.544;9.232;2022-11-13T03:27:15;12.90;99.90
40660;DHT22;26753;45.544;9.232;2022-11-13T03:29:44;11.00;99.90
40660;DHT22;26753;45.544;9.232;2022-11-13T03:42:02;10.60;99.90
40660;DHT22;26753;45.544;9.232;2022-11-13T03:49:23;11.60;99.90
40660;DHT22;26753;45.544;9.232;2022-11-13T03:54:19;11.80;99.90
40660;DHT22;26753;45.544;9.232;2022-11-13T03:56:48;11.20;99.90
40660;DHT22;26753;45.544;9.232;2022-11-13T04:01:43;12.60;99.90
40660;DHT22;26753;45.544;9.232;2022-11-13T04:06:56;12.40;99.90
40660;DHT22;26753;45.544;9.232;2022-11-13T04:19:24;13.70;99.90
40660;DHT22;26753;45.544;9.232;2022-11-13T04:21:49;11.20;99.90
40660;DHT22;26753;45.544;9.232;2022-11-13T04:24:15;11.40;99.90
40660;DHT22;26753;45.544;9.232;2022-11-13T04:26:46;11.60;99.90
40660;DHT22;26753;45.544;9.232;2022-11-13T04:29:15;12.60;99.90
40660;DHT22;26753;45.544;9.232;2022-11-13T04:34:33;10.60;99.90
40660;DHT22;26753;45.544;9.232;2022-11-13T04:37:04;13.70;99.90
40660;DHT22;26753;45.544;9.232;2022-11-13T04:42:19;13.00;99.90
40660;DHT22;26753;45.544;9.232;2022-11-13T04:45:21;12.10;99.90
40660;DHT22;26753;45.544;9.232;2022-11-13T04:47:59;12.30;99.90
40660;DHT22;26753;45.544;9.232;2022-11-13T04:50:44;11.40;99.90
40660;DHT22;26753;45.544;9.232;2022-11-13T04:53:18;11.00;99.90
40660;DHT22;26753;45.544;9.232;2022-11-13T05:09:07;11.50;99.90
40660;DHT22;26753;45.544;9.232;2022-11-13T05:11:41;11.70;99.90
40660;DHT22;26753;45.544;9.232;2022-11-13T05:24:27;11.10;99.90
40660;DHT22;26753;45.544;9.232;2022-11-13T05:30:11;11.80;99.90
40660;DHT22;26753;45.544;9.232;2022-11-13T05:40:18;12.50;99.90
40660;DHT22;26753;45.544;9.232;2022-11-13T05:42:55;12.20;99.90
40660;DHT22;26753;45.544;9.232;2022-11-13T05:45:25;10.20;99.90
40660;DHT22;26753;45.544;9.232;2022-11-13T05:47:52;12.10;99.90
40660;DHT22;26753;45.544;9.232;2022-11-13T06:00:07;11.90;99.90
40660;DHT22;26753;45.544;9.232;2022-11-13T06:07:59;10.80;99.90
40660;DHT22;26753;45.544;9.232;2022-11-13T06:10:35;11.60;99.90
40660;DHT22;26753;45.544;9.232;2022-11-13T06:18:27;11.20;99.90
40660;DHT22;26753;45.544;9.232;2022-11-13T06:31:14;9.30;99.90
40660;DHT22;26753;45.544;9.232;2022-11-13T06:36:17;11.90;99.90
40660;DHT22;26753;45.544;9.232;2022-11-13T06:38:46;13.20;99.90
40660;DHT22;26753;45.544;9.232;2022-11-13T06:41:15;12.40;99.90
40660;DHT22;26753;45.544;9.232;2022-11-13T06:51:37;12.60;99.90
40660;DHT22;26753;45.544;9.232;2022-11-13T06:54:04;10.90;99.90
40660;DHT22;26753;45.544;9.232;2022-11-13T06:56:29;12.30;99.90
40660;DHT22;26753;45.544;9.232;2022-11-13T06:59:15;11.30;99.90
40660;DHT22;26753;45.544;9.232;2022-11-13T07:02:13;10.70;99.90
40660;DHT22;26753;45.544;9.232;2022-11-13T07:07:24;11.40;99.90
40660;DHT22;26753;45.544;9.232;2022-11-13T07:13:04;11.90;99.90
40660;DHT22;26753;45.544;9.232;2022-11-13T07:15:49;11.10;99.90
40660;DHT22;26753;45.544;9.232;2022-11-13T07:18:27;12.00;99.90
40660;DHT22;26753;45.544;9.232;2022-11-13T07:21:14;11.40;99.90
40660;DHT22;26753;45.544;9.232;2022-11-13T07:26:13;12.90;99.90
40660;DHT22;26753;45.544;9.232;2022-11-13T07:29:14;12.60;99.90
40660;DHT22;26753;45.544;9.232;2022-11-13T07:32:04;13.70;99.90
40660;DHT22;26753;45.544;9.232;2022-11-13T07:39:29;14.30;99.90
40660;DHT22;26753;45.544;9.232;2022-11-13T07:41:57;12.70;99.90
40660;DHT22;26753;45.544;9.232;2022-11-13T07:44:26;13.80;99.90
40660;DHT22;26753;45.544;9.232;2022-11-13T07:46:58;12.90;99.90
40660;DHT22;26753;45.544;9.232;2022-11-13T07:49:24;13.20;99.90
40660;DHT22;26753;45.544;9.232;2022-11-13T07:52:09;13.30;99.90
40660;DHT22;26753;45.544;9.232;2022-11-13T07:54:48;13.40;99.90
40660;DHT22;26753;45.544;9.232;2022-11-13T07:57:14;13.50;99.90
40660;DHT22;26753;45.544;9.232;2022-11-13T07:59:45;14.00;99.90
40660;DHT22;26753;45.544;9.232;2022-11-13T08:02:14;14.10;99.90
40660;DHT22;26753;45.544;9.232;2022-11-13T08:04:41;13.80;99.90
40660;DHT22;26753;45.544;9.232;2022-11-13T08:07:07;14.80;99.90
40660;DHT22;26753;45.544;9.232;2022-11-13T08:09:32;14.00;99.90
40660;DHT22;26753;45.544;9.232;2022-11-13T08:12:01;14.10;99.90
40660;DHT22;26753;45.544;9.232;2022-11-13T08:14:27;14.40;99.90
40660;DHT22;26753;45.544;9.232;2022-11-13T08:16:52;14.30;99.90
40660;DHT22;26753;45.544;9.232;2022-11-13T08:19:18;14.50;99.90
40660;DHT22;26753;45.544;9.232;2022-11-13T08:21:43;14.90;99.90
40660;DHT22;26753;45.544;9.232;2022-11-13T08:24:09;14.70;99.90
40660;DHT22;26753;45.544;9.232;2022-11-13T08:26:55;14.80;99.90
40660;DHT22;26753;45.544;9.232;2022-11-13T08:29:22;14.90;99.90
40660;DHT22;26753;45.544;9.232;2022-11-13T08:31:48;15.00;99.90
40660;DHT22;26753;45.544;9.232;2022-11-13T08:34:14;15.00;99.90
40660;DHT22;26753;45.544;9.232;2022-11-13T08:36:39;15.10;99.90
40660;DHT22;26753;45.544;9.232;2022-11-13T08:39:05;15.30;99.90
40660;DHT22;26753;45.544;9.232;2022-11-13T08:41:31;15.30;99.90
40660;DHT22;26753;45.544;9.232;2022-11-13T08:43:57;15.30;99.90
40660;DHT22;26753;45.544;9.232;2022-11-13T08:46:22;15.40;99.90
40660;DHT22;26753;45.544;9.232;2022-11-13T08:48:48;15.50;99.90
40660;DHT22;26753;45.544;9.232;2022-11-13T08:51:14;13.40;99.90
40660;DHT22;26753;45.544;9.232;2022-11-13T08:53:40;15.70;99.90
40660;DHT22;26753;45.544;9.232;2022-11-13T08:56:06;15.70;99.90
40660;DHT22;26753;45.544;9.232;2022-11-13T08:58:37;15.80;99.90
40660;DHT22;26753;45.544;9.232;2022-11-13T09:01:13;15.90;99.90
40660;DHT22;26753;45.544;9.232;2022-11-13T09:03:48;16.00;99.90
40660;DHT22;26753;45.544;9.232;2022-11-13T09:06:23;16.10;99.90
40660;DHT22;26753;45.544;9.232;2022-11-13T09:08:58;16.20;99.90
40660;DHT22;26753;45.544;9.232;2022-11-13T09:11:24;16.30;99.90
40660;DHT22;26753;45.544;9.232;2022-11-13T09:13:53;16.30;99.90
40660;DHT22;26753;45.544;9.232;2022-11-13T09:16:19;16.30;99.90
40660;DHT22;26753;45.544;9.232;2022-11-13T09:18:48;16.30;99.90
40660;DHT22;26753;45.544;9.232;2022-11-13T09:21:14;16.40;99.90
40660;DHT22;26753;45.544;9.232;2022-11-13T09:23:40;16.50;99.90
40660;DHT22;26753;45.544;9.232;2022-11-13T09:26:05;16.60;99.90
40660;DHT22;26753;45.544;9.232;2022-11-13T09:28:31;16.70;99.90
40660;DHT22;26753;45.544;9.232;2022-11-13T09:30:57;16.70;99.90
40660;DHT22;26753;45.544;9.232;2022-11-13T09:33:26;16.80;99.90
40660;DHT22;26753;45.544;9.232;2022-11-13T09:35:51;16.90;99.90
40660;DHT22;26753;45.544;9.232;2022-11-13T09:38:17;17.00;99.90
40660;DHT22;26753;45.544;9.232;2022-11-13T09:41:01;17.00;99.90
40660;DHT22;26753;45.544;9.232;2022-11-13T09:46:35;17.40;99.90
40660;DHT22;26753;45.544;9.232;2022-11-13T09:51:39;17.60;99.90
40660;DHT22;26753;45.544;9.232;2022-11-13T09:54:13;17.80;99.90
40660;DHT22;26753;45.544;9.232;2022-11-13T09:59:36;17.90;99.90
40660;DHT22;26753;45.544;9.232;2022-11-13T10:02:20;18.10;99.90
40660;DHT22;26753;45.544;9.232;2022-11-13T10:07:35;18.20;99.90
40660;DHT22;26753;45.544;9.232;2022-11-13T10:10:45;18.20;99.90
40660;DHT22;26753;45.544;9.232;2022-11-13T10:13:29;18.40;99.90
40660;DHT22;26753;45.544;9.232;2022-11-13T10:18:49;18.40;99.90
40660;DHT22;26753;45.544;9.232;2022-11-13T10:21:46;18.60;99.90
40660;DHT22;26753;45.544;9.232;2022-11-13T10:24:27;18.80;99.90
40660;DHT22;26753;45.544;9.232;2022-11-13T10:26:55;19.00;99.90
40660;DHT22;26753;45.544;9.232;2022-11-13T10:29:23;19.10;99.90
40660;DHT22;26753;45.544;9.232;2022-11-13T10:31:51;19.20;99.90
40660;DHT22;26753;45.544;9.232;2022-11-13T10:34:18;19.40;99.90
40660;DHT22;26753;45.544;9.232;2022-11-13T10:40:08;19.40;99.90
40660;DHT22;26753;45.544;9.232;2022-11-13T10:42:40;19.60;99.90
40660;DHT22;26753;45.544;9.232;2022-11-13T10:45:17;19.70;99.90
40660;DHT22;26753;45.544;9.232;2022-11-13T10:47:46;19.80;99.90
40660;DHT22;26753;45.544;9.232;2022-11-13T10:50:24;20.00;99.90
40660;DHT22;26753;45.544;9.232;2022-11-13T10:52:53;20.10;99.90
40660;DHT22;26753;45.544;9.232;2022-11-13T10:55:37;20.30;99.90
40660;DHT22;26753;45.544;9.232;2022-11-13T10:58:14;20.40;99.90
40660;DHT22;26753;45.544;9.232;2022-11-13T11:00:41;20.50;99.90
40660;DHT22;26753;45.544;9.232;2022-11-13T11:03:23;20.60;99.90
40660;DHT22;26753;45.544;9.232;2022-11-13T11:05:59;20.80;99.90
40660;DHT22;26753;45.544;9.232;2022-11-13T11:08:33;20.90;99.90
40660;DHT22;26753;45.544;9.232;2022-11-13T11:11:02;21.00;99.90
40660;DHT22;26753;45.544;9.232;2022-11-13T11:13:49;21.00;99.90
40660;DHT22;26753;45.544;9.232;2022-11-13T11:16:19;21.10;99.90
40660;DHT22;26753;45.544;9.232;2022-11-13T11:19:01;21.20;99.90
40660;DHT22;26753;45.544;9.232;2022-11-13T11:21:33;21.40;99.90
40660;DHT22;26753;45.544;9.232;2022-11-13T11:24:20;21.50;99.90
40660;DHT22;26753;45.544;9.232;2022-11-13T11:26:57;21.50;99.90
40660;DHT22;26753;45.544;9.232;2022-11-13T11:43:02;21.70;99.90
40660;DHT22;26753;45.544;9.232;2022-11-13T11:45:39;21.80;99.90
40660;DHT22;26753;45.544;9.232;2022-11-13T11:48:29;21.70;99.90
40660;DHT22;26753;45.544;9.232;2022-11-13T11:56:33;22.00;99.90
40660;DHT22;26753;45.544;9.232;2022-11-13T11:59:06;22.30;99.90
40660;DHT22;26753;45.544;9.232;2022-11-13T12:09:46;27.80;91.80
40660;DHT22;26753;45.544;9.232;2022-11-13T12:12:43;26.20;92.30
40660;DHT22;26753;45.544;9.232;2022-11-13T12:15:40;25.20;93.30
40660;DHT22;26753;45.544;9.232;2022-11-13T12:18:26;24.70;93.30
40660;DHT22;26753;45.544;9.232;2022-11-13T12:27:46;31.90;73.80
40660;DHT22;26753;45.544;9.232;2022-11-13T12:30:45;31.20;73.90
40660;DHT22;26753;45.544;9.232;2022-11-13T12:36:10;27.30;74.90
40660;DHT22;26753;45.544;9.232;2022-11-13T12:41:40;28.70;76.70
40660;DHT22;26753;45.544;9.232;2022-11-13T12:44:26;32.30;74.20
40660;DHT22;26753;45.544;9.232;2022-11-13T12:46:54;34.80;68.20
40660;DHT22;26753;45.544;9.232;2022-11-13T12:49:33;37.20;66.20
40660;DHT22;26753;45.544;9.232;2022-11-13T12:52:17;39.80;62.90
40660;DHT22;26753;45.544;9.232;2022-11-13T12:54:43;41.70;59.30
40660;DHT22;26753;45.544;9.232;2022-11-13T12:59:52;41.20;55.30
40660;DHT22;26753;45.544;9.232;2022-11-13T13:02:28;38.00;55.10
40660;DHT22;26753;45.544;9.232;2022-11-13T13:05:11;37.90;56.50
40660;DHT22;26753;45.544;9.232;2022-11-13T13:13:02;42.70;53.40
40660;DHT22;26753;45.544;9.232;2022-11-13T13:15:38;42.90;52.00
40660;DHT22;26753;45.544;9.232;2022-11-13T13:18:09;42.30;51.00
40660;DHT22;26753;45.544;9.232;2022-11-13T13:20:40;40.40;51.50
40660;DHT22;26753;45.544;9.232;2022-11-13T13:23:11;40.10;52.40
40660;DHT22;26753;45.544;9.232;2022-11-13T13:25:38;38.60;53.50
40660;DHT22;26753;45.544;9.232;2022-11-13T13:30:56;41.50;52.20
40660;DHT22;26753;45.544;9.232;2022-11-13T13:36:22;44.30;49.70
40660;DHT22;26753;45.544;9.232;2022-11-13T13:46:59;45.60;47.90
40660;DHT22;26753;45.544;9.232;2022-11-13T13:49:27;45.00;47.80
40660;DHT22;26753;45.544;9.232;2022-11-13T13:51:55;43.40;48.60
40660;DHT22;26753;45.544;9.232;2022-11-13T13:54:25;44.80;48.80
40660;DHT22;26753;45.544;9.232;2022-11-13T13:56:56;44.60;47.80
40660;DHT22;26753;45.544;9.232;2022-11-13T13:59:32;44.20;47.70
40660;DHT22;26753;45.544;9.232;2022-11-13T14:02:00;44.40;47.70
40660;DHT22;26753;45.544;9.232;2022-11-13T14:04:34;44.10;47.70
40660;DHT22;26753;45.544;9.232;2022-11-13T14:07:01;43.60;47.80
40660;DHT22;26753;45.544;9.232;2022-11-13T14:09:28;43.30;47.90
40660;DHT22;26753;45.544;9.232;2022-11-13T14:12:20;42.30;48.20
40660;DHT22;26753;45.544;9.232;2022-11-13T14:14:46;41.90;48.00
40660;DHT22;26753;45.544;9.232;2022-11-13T14:17:21;40.40;49.60
40660;DHT22;26753;45.544;9.232;2022-11-13T14:19:53;37.90;49.50
40660;DHT22;26753;45.544;9.232;2022-11-13T14:22:19;38.00;50.80
40660;DHT22;26753;45.544;9.232;2022-11-13T14:24:51;39.40;50.00
40660;DHT22;26753;45.544;9.232;2022-11-13T14:27:22;38.40;50.30
40660;DHT22;26753;45.544;9.232;2022-11-13T14:29:57;36.20;50.60
40660;DHT22;26753;45.544;9.232;2022-11-13T14:32:32;34.40;51.70
40660;DHT22;26753;45.544;9.232;2022-11-13T14:35:04;32.00;53.50
40660;DHT22;26753;45.544;9.232;2022-11-13T14:37:35;29.70;55.90
40660;DHT22;26753;45.544;9.232;2022-11-13T14:40:27;30.70;56.90
40660;DHT22;26753;45.544;9.232;2022-11-13T14:42:57;30.60;56.40
40660;DHT22;26753;45.544;9.232;2022-11-13T14:45:29;29.20;56.90
40660;DHT22;26753;45.544;9.232;2022-11-13T14:47:57;27.80;58.80
40660;DHT22;26753;45.544;9.232;2022-11-13T14:50:34;26.30;60.60
40660;DHT22;26753;45.544;9.232;2022-11-13T14:55:33;24.50;63.90
40660;DHT22;26753;45.544;9.232;2022-11-13T14:58:00;24.20;64.90
40660;DHT22;26753;45.544;9.232;2022-11-13T15:00:32;23.90;65.70
40660;DHT22;26753;45.544;9.232;2022-11-13T15:03:00;23.40;66.60
40660;DHT22;26753;45.544;9.232;2022-11-13T15:05:25;23.20;67.50
40660;DHT22;26753;45.544;9.232;2022-11-13T15:07:53;22.80;68.00
40660;DHT22;26753;45.544;9.232;2022-11-13T15:10:21;22.30;69.30
40660;DHT22;26753;45.544;9.232;2022-11-13T15:12:47;21.80;70.40
40660;DHT22;26753;45.544;9.232;2022-11-13T15:15:25;21.80;71.20
40660;DHT22;26753;45.544;9.232;2022-11-13T15:17:51;21.80;71.70
40660;DHT22;26753;45.544;9.232;2022-11-13T15:20:22;21.50;72.10
40660;DHT22;26753;45.544;9.232;2022-11-13T15:22:50;21.30;72.70
40660;DHT22;26753;45.544;9.232;2022-11-13T15:25:19;21.00;73.80
40660;DHT22;26753;45.544;9.232;2022-11-13T15:27:45;20.80;74.60
40660;DHT22;26753;45.544;9.232;2022-11-13T15:30:11;20.80;75.30
40660;DHT22;26753;45.544;9.232;2022-11-13T15:32:37;20.50;75.90
40660;DHT22;26753;45.544;9.232;2022-11-13T15:35:04;20.20;77.00
40660;DHT22;26753;45.544;9.232;2022-11-13T15:37:30;19.80;77.90
40660;DHT22;26753;45.544;9.232;2022-11-13T15:39:55;19.80;79.30
40660;DHT22;26753;45.544;9.232;2022-11-13T15:42:30;19.70;79.50
40660;DHT22;26753;45.544;9.232;2022-11-13T15:44:56;19.40;80.90
40660;DHT22;26753;45.544;9.232;2022-11-13T15:47:27;19.20;81.50
40660;DHT22;26753;45.544;9.232;2022-11-13T15:49:54;19.40;82.40
40660;DHT22;26753;45.544;9.232;2022-11-13T15:52:20;19.30;83.00
40660;DHT22;26753;45.544;9.232;2022-11-13T15:54:46;19.50;83.50
40660;DHT22;26753;45.544;9.232;2022-11-13T15:57:20;19.50;84.00
40660;DHT22;26753;45.544;9.232;2022-11-13T15:59:46;19.50;84.50
40660;DHT22;26753;45.544;9.232;2022-11-13T16:02:14;19.50;84.90
40660;DHT22;26753;45.544;9.232;2022-11-13T16:04:40;19.40;85.00
40660;DHT22;26753;45.544;9.232;2022-11-13T16:07:16;19.40;86.00
40660;DHT22;26753;45.544;9.232;2022-11-13T16:09:43;19.30;86.90
40660;DHT22;26753;45.544;9.232;2022-11-13T16:12:10;19.30;87.40
40660;DHT22;26753;45.544;9.232;2022-11-13T16:14:36;19.20;88.00
40660;DHT22;26753;45.544;9.232;2022-11-13T16:17:02;18.60;89.00
40660;DHT22;26753;45.544;9.232;2022-11-13T16:19:29;19.10;89.30
40660;DHT22;26753;45.544;9.232;2022-11-13T16:21:54;19.10;89.90
40660;DHT22;26753;45.544;9.232;2022-11-13T16:24:20;19.00;90.20
40660;DHT22;26753;45.544;9.232;2022-11-13T16:26:55;18.90;90.50
40660;DHT22;26753;45.544;9.232;2022-11-13T16:29:22;18.90;91.00
40660;DHT22;26753;45.544;9.232;2022-11-13T16:31:48;18.70;91.40
40660;DHT22;26753;45.544;9.232;2022-11-13T16:34:14;18.60;91.80
40660;DHT22;26753;45.544;9.232;2022-11-13T16:36:40;18.50;92.30
40660;DHT22;26753;45.544;9.232;2022-11-13T16:39:10;18.40;92.80
40660;DHT22;26753;45.544;9.232;2022-11-13T16:41:38;18.40;93.40
40660;DHT22;26753;45.544;9.232;2022-11-13T16:44:03;18.40;93.70
40660;DHT22;26753;45.544;9.232;2022-11-13T16:46:31;18.30;94.10
40660;DHT22;26753;45.544;9.232;2022-11-13T16:48:57;18.30;94.70
40660;DHT22;26753;45.544;9.232;2022-11-13T16:51:23;18.20;95.30
40660;DHT22;26753;45.544;9.232;2022-11-13T16:53:49;18.20;95.80
40660;DHT22;26753;45.544;9.232;2022-11-13T16:56:19;18.10;96.30
40660;DHT22;26753;45.544;9.232;2022-11-13T16:58:47;18.30;97.00
40660;DHT22;26753;45.544;9.232;2022-11-13T17:01:17;17.90;97.70
40660;DHT22;26753;45.544;9.232;2022-11-13T17:03:44;17.90;98.40
40660;DHT22;26753;45.544;9.232;2022-11-13T17:06:25;17.90;99.00
40660;DHT22;26753;45.544;9.232;2022-11-13T17:08:53;17.90;99.70
40660;DHT22;26753;45.544;9.232;2022-11-13T17:11:20;17.80;99.90
40660;DHT22;26753;45.544;9.232;2022-11-13T17:13:53;17.80;99.90
40660;DHT22;26753;45.544;9.232;2022-11-13T17:16:20;17.70;99.90
40660;DHT22;26753;45.544;9.232;2022-11-13T17:18:46;18.20;99.90
40660;DHT22;26753;45.544;9.232;2022-11-13T17:21:16;17.80;99.90
40660;DHT22;26753;45.544;9.232;2022-11-13T17:23:42;17.80;99.90
40660;DHT22;26753;45.544;9.232;2022-11-13T17:26:08;17.70;99.90
40660;DHT22;26753;45.544;9.232;2022-11-13T17:28:34;17.60;99.90
40660;DHT22;26753;45.544;9.232;2022-11-13T17:31:04;17.60;99.90
40660;DHT22;26753;45.544;9.232;2022-11-13T17:33:31;17.60;99.90
40660;DHT22;26753;45.544;9.232;2022-11-13T17:35:58;18.30;99.90
40660;DHT22;26753;45.544;9.232;2022-11-13T17:38:24;17.30;99.90
40660;DHT22;26753;45.544;9.232;2022-11-13T17:40:51;17.20;99.90
40660;DHT22;26753;45.544;9.232;2022-11-13T17:43:17;17.20;99.90
40660;DHT22;26753;45.544;9.232;2022-11-13T17:45:46;17.30;99.90
40660;DHT22;26753;45.544;9.232;2022-11-13T17:48:12;17.50;99.90
40660;DHT22;26753;45.544;9.232;2022-11-13T17:50:38;17.40;99.90
40660;DHT22;26753;45.544;9.232;2022-11-13T17:53:03;17.40;99.90
40660;DHT22;26753;45.544;9.232;2022-11-13T17:55:29;17.50;99.90
40660;DHT22;26753;45.544;9.232;2022-11-13T17:57:58;17.50;99.90
40660;DHT22;26753;45.544;9.232;2022-11-13T18:00:24;18.10;99.90
40660;DHT22;26753;45.544;9.232;2022-11-13T18:02:50;17.50;99.90
40660;DHT22;26753;45.544;9.232;2022-11-13T18:05:15;17.50;99.90
40660;DHT22;26753;45.544;9.232;2022-11-13T18:07:41;17.60;99.90
40660;DHT22;26753;45.544;9.232;2022-11-13T18:10:07;17.60;99.90
40660;DHT22;26753;45.544;9.232;2022-11-13T18:12:33;17.50;99.90
40660;DHT22;26753;45.544;9.232;2022-11-13T18:14:59;17.50;99.90
40660;DHT22;26753;45.544;9.232;2022-11-13T18:17:24;17.50;99.90
40660;DHT22;26753;45.544;9.232;2022-11-13T18:19:50;17.50;99.90
40660;DHT22;26753;45.544;9.232;2022-11-13T18:22:17;17.60;99.90
40660;DHT22;26753;45.544;9.232;2022-11-13T18:24:42;17.60;99.90
40660;DHT22;26753;45.544;9.232;2022-11-13T18:27:09;17.40;99.90
40660;DHT22;26753;45.544;9.232;2022-11-13T18:29:35;17.30;99.90
40660;DHT22;26753;45.544;9.232;2022-11-13T18:32:01;17.30;99.90
40660;DHT22;26753;45.544;9.232;2022-11-13T18:34:26;17.20;99.90
40660;DHT22;26753;45.544;9.232;2022-11-13T18:36:53;17.20;99.90
40660;DHT22;26753;45.544;9.232;2022-11-13T18:39:19;17.20;99.90
40660;DHT22;26753;45.544;9.232;2022-11-13T18:41:45;17.20;99.90
40660;DHT22;26753;45.544;9.232;2022-11-13T18:44:10;17.20;99.90
40660;DHT22;26753;45.544;9.232;2022-11-13T18:46:36;17.20;99.90
40660;DHT22;26753;45.544;9.232;2022-11-13T18:49:02;17.20;99.90
40660;DHT22;26753;45.544;9.232;2022-11-13T18:51:28;17.20;99.90
40660;DHT22;26753;45.544;9.232;2022-11-13T18:53:57;17.20;99.90
40660;DHT22;26753;45.544;9.232;2022-11-13T18:56:25;17.10;99.90
40660;DHT22;26753;45.544;9.232;2022-11-13T18:58:53;17.00;99.90
40660;DHT22;26753;45.544;9.232;2022-11-13T19:01:21;17.00;99.90
40660;DHT22;26753;45.544;9.232;2022-11-13T19:03:47;16.90;99.90
40660;DHT22;26753;45.544;9.232;2022-11-13T19:06:15;16.90;99.90
40660;DHT22;26753;45.544;9.232;2022-11-13T19:08:42;16.90;99.90
40660;DHT22;26753;45.544;9.232;2022-11-13T19:11:13;17.00;99.90
40660;DHT22;26753;45.544;9.232;2022-11-13T19:13:40;16.90;99.90
40660;DHT22;26753;45.544;9.232;2022-11-13T19:16:12;16.80;99.90
40660;DHT22;26753;45.544;9.232;2022-11-13T19:18:39;16.80;99.90
40660;DHT22;26753;45.544;9.232;2022-11-13T19:21:10;16.70;99.90
40660;DHT22;26753;45.544;9.232;2022-11-13T19:23:37;16.70;99.90
40660;DHT22;26753;45.544;9.232;2022-11-13T19:26:04;16.60;99.90
40660;DHT22;26753;45.544;9.232;2022-11-13T19:28:30;16.60;99.90
40660;DHT22;26753;45.544;9.232;2022-11-13T19:30:56;16.60;99.90
40660;DHT22;26753;45.544;9.232;2022-11-13T19:33:24;16.60;99.90
40660;DHT22;26753;45.544;9.232;2022-11-13T19:35:51;16.60;99.90
40660;DHT22;26753;45.544;9.232;2022-11-13T19:38:17;16.50;99.90
40660;DHT22;26753;45.544;9.232;2022-11-13T19:40:46;16.50;99.90
40660;DHT22;26753;45.544;9.232;2022-11-13T19:43:12;16.40;99.90
40660;DHT22;26753;45.544;9.232;2022-11-13T19:45:38;16.40;99.90